Time;durP1;ratioP1;P1;durP2;ratioP2;P2;SDS_P1;SDS_P2;PMS_P1;PMS_P2;Temp;Humidity;BMP_temperature;BMP_pressure;BME280_temperature;BME280_humidity;BME280_pressure;Samples;Min_cycle;Max_cycle;Signal;HPM_P1;HPM_P2
2022/01/08 00:00:44;;;;;;;10.27;2.30;;;;;;;3.91;99.12;97872.75;5023623;28;20477;-67
2022/01/08 00:03:10;;;;;;;7.80;2.00;;;;;;;3.83;98.71;97858.91;5023831;28;20033;-67
2022/01/08 00:05:35;;;;;;;10.02;2.60;;;;;;;3.81;99.36;97852.84;5023997;28;20325;-67
2022/01/08 00:08:01;;;;;;;8.13;2.53;;;;;;;3.73;100.00;97845.94;5023831;28;20085;-67
2022/01/08 00:10:26;;;;;;;12.27;2.25;;;;;;;3.68;99.77;97846.00;5023862;28;20029;-67
2022/01/08 00:12:52;;;;;;;12.10;2.63;;;;;;;3.65;100.00;97842.53;5023737;28;20029;-67
2022/01/08 00:15:18;;;;;;;3.38;1.80;;;;;;;3.64;99.83;97841.66;5016178;28;20033;-67
2022/01/08 00:17:43;;;;;;;6.68;1.95;;;;;;;3.74;100.00;97826.88;5023552;28;20029;-67
2022/01/08 00:20:09;;;;;;;12.82;2.75;;;;;;;3.74;99.73;97829.47;5023846;28;20028;-67
2022/01/08 00:22:35;;;;;;;3.28;1.80;;;;;;;3.67;99.78;97820.81;5023525;28;20033;-67
2022/01/08 00:25:00;;;;;;;9.93;2.50;;;;;;;3.56;99.94;97817.44;5023399;28;20242;-67
2022/01/08 00:27:26;;;;;;;3.88;2.75;;;;;;;3.62;99.96;97820.00;5023769;28;20025;-67
2022/01/08 00:29:51;;;;;;;6.47;2.08;;;;;;;3.40;99.71;97815.78;5023519;28;20048;-67
2022/01/08 00:32:17;;;;;;;4.20;2.22;;;;;;;3.26;99.71;97807.16;5023607;28;20033;-67
2022/01/08 00:34:42;;;;;;;7.90;2.08;;;;;;;3.28;99.32;97810.63;5022765;28;20371;-67
2022/01/08 00:37:08;;;;;;;5.38;1.85;;;;;;;2.98;99.15;97802.06;5023467;28;20021;-67
2022/01/08 00:39:34;;;;;;;2.35;1.30;;;;;;;2.92;99.45;97789.97;5023615;28;20029;-67
2022/01/08 00:42:00;;;;;;;3.35;1.60;;;;;;;2.69;99.52;97791.72;5023295;28;20033;-67
2022/01/08 00:44:25;;;;;;;4.75;1.95;;;;;;;2.66;100.00;97790.88;5023637;28;20025;-67
2022/01/08 00:46:51;;;;;;;5.07;1.90;;;;;;;2.46;100.00;97788.31;5023394;28;20021;-67
2022/01/08 00:49:16;;;;;;;4.05;2.13;;;;;;;2.55;100.00;97790.91;5023281;28;20095;-67
2022/01/08 00:51:42;;;;;;;7.50;2.17;;;;;;;2.66;100.00;97801.28;5023350;28;20045;-67
2022/01/08 00:54:07;;;;;;;5.05;2.08;;;;;;;2.60;100.00;97796.97;5023298;28;20022;-67
2022/01/08 00:56:32;;;;;;;2.15;1.52;;;;;;;2.62;100.00;97794.38;5023464;28;20138;-67
2022/01/08 00:58:58;;;;;;;2.83;1.80;;;;;;;2.58;100.00;97790.91;5023514;28;20320;-67
2022/01/08 01:01:23;;;;;;;4.97;2.53;;;;;;;2.57;100.00;97785.69;5023113;28;20028;-67
2022/01/08 01:03:49;;;;;;;4.07;2.22;;;;;;;2.63;100.00;97781.38;5023135;28;20026;-67
2022/01/08 01:06:14;;;;;;;4.47;2.15;;;;;;;2.67;100.00;97777.91;5023258;28;20068;-67
2022/01/08 01:08:40;;;;;;;5.90;2.13;;;;;;;2.71;100.00;97783.94;5023084;28;20022;-67
2022/01/08 01:11:05;;;;;;;4.43;2.00;;;;;;;2.67;100.00;97766.63;5023117;28;20045;-67
2022/01/08 01:13:30;;;;;;;4.72;1.80;;;;;;;2.72;100.00;97770.09;5023097;28;20026;-67
2022/01/08 01:15:57;;;;;;;5.72;1.80;;;;;;;2.72;100.00;97760.53;5023242;28;20030;-67
2022/01/08 01:18:22;;;;;;;2.83;1.48;;;;;;;2.87;100.00;97765.72;5023137;28;20029;-67
2022/01/08 01:20:48;;;;;;;2.17;1.58;;;;;;;2.91;100.00;97757.03;5023070;28;20064;-67
2022/01/08 01:23:18;;;;;;;1.55;1.20;;;;;;;2.96;100.00;97744.88;5023083;28;20256;-67
2022/01/08 01:25:54;;;;;;;3.80;1.40;;;;;;;2.95;100.00;97745.78;5023054;28;20065;-67
2022/01/08 01:41:32;;;;;;;0.68;0.57;;;;;;;3.50;100.00;97733.34;5023045;28;20364;-67
2022/01/08 01:49:04;;;;;;;1.35;0.80;;;;;;;3.76;100.00;97732.31;5026512;28;20045;-67
2022/01/08 01:51:29;;;;;;;1.70;0.85;;;;;;;3.71;100.00;97735.81;5026501;28;20022;-67
2022/01/08 01:53:55;;;;;;;0.55;0.47;;;;;;;3.66;100.00;97735.84;5026309;28;20025;-67
2022/01/08 01:56:21;;;;;;;0.70;0.60;;;;;;;3.65;100.00;97734.13;5026191;28;20033;-67
2022/01/08 01:58:47;;;;;;;1.33;0.80;;;;;;;3.49;100.00;97742.03;5026345;28;20048;-67
2022/01/08 02:01:13;;;;;;;2.97;0.80;;;;;;;3.51;100.00;97720.31;5026317;28;20032;-67
2022/01/08 02:03:39;;;;;;;1.38;1.20;;;;;;;3.67;100.00;97727.16;5025925;28;20272;-67
2022/01/08 02:06:05;;;;;;;1.25;0.73;;;;;;;3.60;100.00;97715.06;5026157;28;20022;-67
2022/01/08 02:08:31;;;;;;;0.95;0.77;;;;;;;3.46;100.00;97731.63;5026187;28;20028;-67
2022/01/08 02:10:56;;;;;;;1.65;1.10;;;;;;;3.50;100.00;97713.41;5026028;28;20017;-67
2022/01/08 02:13:26;;;;;;;1.13;0.80;;;;;;;3.55;100.00;97711.63;5025954;28;20340;-67
2022/01/08 02:15:54;;;;;;;2.22;0.88;;;;;;;3.62;100.00;97715.94;5020215;28;20248;-67
2022/01/08 02:18:25;;;;;;;5.13;1.05;;;;;;;3.65;100.00;97715.03;5025717;28;20026;-67
2022/01/08 02:20:52;;;;;;;1.40;0.77;;;;;;;3.56;100.00;97718.56;5026147;28;20304;-67
2022/01/08 02:23:18;;;;;;;0.93;0.70;;;;;;;3.53;100.00;97718.59;5025968;28;20212;-67
2022/01/08 02:25:43;;;;;;;1.08;0.88;;;;;;;3.62;100.00;97717.66;5025506;28;20066;-67
2022/01/08 02:28:09;;;;;;;1.33;0.70;;;;;;;3.73;100.00;97727.13;5025625;28;20017;-67
2022/01/08 02:30:35;;;;;;;1.00;0.80;;;;;;;3.68;100.00;97721.09;5025508;28;20020;-67
2022/01/08 02:33:00;;;;;;;1.23;0.90;;;;;;;3.66;100.00;97730.63;5025780;28;20028;-67
2022/01/08 02:35:26;;;;;;;1.17;0.70;;;;;;;3.64;100.00;97740.19;5025231;28;20026;-67
2022/01/08 02:37:53;;;;;;;1.30;0.90;;;;;;;3.66;100.00;97741.06;5025760;28;20017;-67
2022/01/08 02:40:19;;;;;;;1.08;0.90;;;;;;;3.72;100.00;97751.41;5025413;28;20337;-67
2022/01/08 02:43:02;;;;;;;1.95;0.93;;;;;;;3.58;100.00;97758.44;5025596;28;20021;-67
2022/01/08 02:45:28;;;;;;;1.30;1.02;;;;;;;3.57;100.00;97741.09;5025837;28;20029;-67
2022/01/08 02:47:54;;;;;;;3.13;1.13;;;;;;;3.62;100.00;97741.94;5025369;28;20084;-67
2022/01/08 02:50:20;;;;;;;1.55;1.05;;;;;;;3.59;100.00;97747.16;5025289;28;20072;-67
2022/01/08 02:52:47;;;;;;;1.40;1.05;;;;;;;3.56;100.00;97760.19;5025559;28;20021;-67
2022/01/08 02:55:15;;;;;;;4.13;1.20;;;;;;;3.59;100.00;97770.59;5025206;28;20053;-67
2022/01/08 02:57:40;;;;;;;1.58;0.90;;;;;;;3.68;100.00;97770.53;5024717;28;20034;-67
2022/01/08 03:00:09;;;;;;;1.85;1.08;;;;;;;3.66;100.00;97766.19;5017253;28;20021;-67
2022/01/08 03:02:39;;;;;;;1.38;1.10;;;;;;;3.77;100.00;97775.66;5024905;28;20033;-67
2022/01/08 03:05:07;;;;;;;2.08;1.33;;;;;;;3.84;100.00;97766.97;5024480;28;20321;-67
2022/01/08 03:07:33;;;;;;;2.30;1.23;;;;;;;3.74;100.00;97770.47;5024958;28;20025;-67
2022/01/08 03:09:58;;;;;;;2.00;1.20;;;;;;;3.79;100.00;97763.50;5025056;28;20041;-67
2022/01/08 03:12:27;;;;;;;0.77;0.70;;;;;;;3.85;100.00;97779.09;5024952;28;21242;-67
2022/01/08 03:14:55;;;;;;;1.98;1.10;;;;;;;3.96;100.00;97777.25;5024792;28;20297;-67
2022/01/08 03:17:20;;;;;;;1.60;0.95;;;;;;;3.91;100.00;97791.19;5024945;28;20026;-67
2022/01/08 03:19:46;;;;;;;1.25;1.15;;;;;;;3.99;99.96;97798.06;5024446;28;20036;-67
2022/01/08 03:22:12;;;;;;;2.05;1.02;;;;;;;3.73;99.14;97810.38;5024548;28;20083;-67
2022/01/08 03:24:39;;;;;;;2.00;0.95;;;;;;;3.65;99.66;97822.59;5025051;28;20093;-67
2022/01/08 03:27:05;;;;;;;2.50;1.25;;;;;;;3.71;100.00;97832.97;5024279;28;20038;-67
2022/01/08 03:29:31;;;;;;;0.82;0.80;;;;;;;3.72;100.00;97850.31;5024604;28;20022;-67
2022/01/08 03:31:56;;;;;;;1.98;1.10;;;;;;;3.74;98.43;97848.53;5024962;28;20021;-67
2022/01/08 03:34:22;;;;;;;1.83;1.10;;;;;;;3.86;98.45;97858.88;5024573;28;20221;-67
2022/01/08 03:36:47;;;;;;;0.57;0.40;;;;;;;4.05;97.11;97865.72;5024613;28;20029;-67
2022/01/08 03:39:12;;;;;;;1.42;0.82;;;;;;;3.90;98.29;97889.22;5024487;28;20041;-67
2022/01/08 03:41:38;;;;;;;0.65;0.65;;;;;;;4.01;98.46;97890.03;5024056;28;20091;-67
2022/01/08 03:44:04;;;;;;;1.20;0.82;;;;;;;3.92;97.94;97897.91;5024422;28;20018;-67
2022/01/08 03:46:34;;;;;;;0.88;0.80;;;;;;;3.71;97.04;97911.03;5024340;28;20022;-67
2022/01/08 03:51:28;;;;;;;4.78;0.63;;;;;;;3.71;97.05;97931.84;5024569;28;20028;-67
2022/01/08 03:53:53;;;;;;;0.82;0.70;;;;;;;3.57;96.81;97944.03;5023856;28;20025;-67
2022/01/08 03:56:19;;;;;;;0.45;0.45;;;;;;;3.48;98.25;97958.81;5024369;28;20040;-67
2022/01/08 03:58:44;;;;;;;1.40;0.63;;;;;;;3.63;97.11;97962.22;5024035;28;20099;-67
2022/01/08 04:01:10;;;;;;;3.97;0.73;;;;;;;3.71;97.51;97968.28;5023846;28;20017;-67
2022/01/08 04:03:35;;;;;;;0.98;0.60;;;;;;;3.55;96.53;97971.75;5024149;28;20025;-67
2022/01/08 04:06:01;;;;;;;0.35;0.35;;;;;;;3.48;96.92;97980.47;5024030;28;20020;-67
2022/01/08 04:08:26;;;;;;;0.50;0.50;;;;;;;3.53;97.15;97994.34;5024040;28;20336;-67
2022/01/08 04:10:52;;;;;;;0.50;0.47;;;;;;;3.71;97.27;97999.50;5023169;28;20205;-67
2022/01/08 04:13:23;;;;;;;0.63;0.60;;;;;;;3.67;98.04;98018.56;5024055;28;20021;-67
2022/01/08 04:15:51;;;;;;;0.57;0.50;;;;;;;3.63;97.65;98027.28;5024148;28;20049;-67
2022/01/08 04:18:17;;;;;;;0.60;0.60;;;;;;;3.56;97.17;98030.75;5023410;28;20028;-67
2022/01/08 04:23:26;;;;;;;1.95;0.55;;;;;;;3.48;96.77;98057.66;5024020;28;20017;-67
2022/01/08 04:25:52;;;;;;;0.65;0.60;;;;;;;3.40;96.76;98070.66;5023681;28;20077;-67
2022/01/08 04:28:18;;;;;;;0.88;0.40;;;;;;;3.38;97.22;98077.59;5023597;28;20045;-67
2022/01/08 04:30:43;;;;;;;0.55;0.43;;;;;;;3.37;97.98;98078.47;5023772;28;20037;-67
2022/01/08 04:33:09;;;;;;;0.30;0.30;;;;;;;3.27;96.89;98084.53;5023500;28;20021;-67
2022/01/08 04:35:35;;;;;;;0.57;0.38;;;;;;;3.18;96.77;98079.31;5023572;28;20025;-67
2022/01/08 04:38:00;;;;;;;0.43;0.30;;;;;;;3.37;97.65;98091.47;5023385;28;20136;-67
2022/01/08 04:40:26;;;;;;;0.28;0.28;;;;;;;3.32;96.81;98100.97;5023382;28;20025;-67
2022/01/08 04:42:51;;;;;;;0.32;0.30;;;;;;;3.31;97.81;98107.06;5023415;28;20068;-67
2022/01/08 04:45:17;;;;;;;1.13;0.52;;;;;;;3.49;97.01;98114.88;5023567;28;20022;-67
2022/01/08 04:47:44;;;;;;;0.65;0.30;;;;;;;3.34;95.77;98127.88;5023431;28;20033;-67
2022/01/08 04:50:12;;;;;;;0.65;0.60;;;;;;;3.52;97.64;98133.09;5023332;28;20017;-67
2022/01/08 04:52:38;;;;;;;2.00;0.70;;;;;;;3.27;96.31;98144.34;5023476;28;20101;-67
2022/01/08 04:55:04;;;;;;;0.20;0.20;;;;;;;3.16;96.56;98143.44;5023448;28;20044;-67
2022/01/08 04:57:29;;;;;;;0.47;0.38;;;;;;;3.08;97.33;98155.56;5023156;28;20309;-67
2022/01/08 04:59:55;;;;;;;0.77;0.60;;;;;;;3.13;96.98;98158.19;5022931;28;20021;-67
2022/01/08 05:02:20;;;;;;;2.58;0.70;;;;;;;3.07;96.48;98153.81;5023034;28;20148;-67
2022/01/08 05:04:45;;;;;;;0.40;0.40;;;;;;;3.04;96.05;98164.22;5023336;28;20028;-67
2022/01/08 05:07:11;;;;;;;1.58;0.77;;;;;;;3.02;97.20;98168.56;5023154;28;20318;-67
2022/01/08 05:09:36;;;;;;;1.65;0.73;;;;;;;3.07;96.54;98184.16;5023383;28;20029;-67
2022/01/08 05:12:03;;;;;;;6.90;0.70;;;;;;;2.96;96.20;98175.44;5023120;28;20036;-67
2022/01/08 05:14:28;;;;;;;5.78;0.70;;;;;;;3.06;96.91;98185.88;5023027;28;20018;-67
2022/01/08 05:16:59;;;;;;;3.63;1.33;;;;;;;3.06;96.33;98193.69;5016803;28;20093;-67
2022/01/08 05:19:38;;;;;;;1.05;0.95;;;;;;;3.00;96.12;98198.00;5023186;28;20022;-67
2022/01/08 05:22:05;;;;;;;1.63;1.10;;;;;;;2.99;96.47;98207.53;5024587;28;20136;-67
2022/01/08 05:24:32;;;;;;;2.97;1.20;;;;;;;2.96;95.61;98207.53;5026675;28;20036;-67
2022/01/08 05:26:58;;;;;;;1.30;1.00;;;;;;;2.97;96.42;98209.25;5026784;28;20387;-67
2022/01/08 05:29:23;;;;;;;12.88;1.48;;;;;;;2.90;96.81;98227.41;5027123;28;20017;-67
2022/01/08 05:31:49;;;;;;;1.35;0.73;;;;;;;2.80;96.46;98226.53;5026799;28;20013;-67
2022/01/08 05:34:14;;;;;;;1.80;1.40;;;;;;;2.66;97.42;98233.34;5026676;28;20025;-67
2022/01/08 05:36:39;;;;;;;7.53;1.77;;;;;;;2.70;97.80;98232.53;5026639;28;20021;-67
2022/01/08 05:39:05;;;;;;;6.95;1.23;;;;;;;2.75;97.61;98241.22;5026727;28;20029;-67
2022/01/08 05:41:33;;;;;;;3.72;1.40;;;;;;;2.68;97.74;98236.84;5026579;28;20018;-67
2022/01/08 05:43:59;;;;;;;2.53;1.38;;;;;;;2.70;97.49;98237.72;5026655;28;20178;-67
2022/01/08 05:46:24;;;;;;;8.98;1.65;;;;;;;2.73;97.50;98255.94;5026110;28;20040;-67
2022/01/08 05:48:49;;;;;;;9.75;1.95;;;;;;;2.75;96.66;98258.53;5026277;28;20033;-67
2022/01/08 05:51:15;;;;;;;6.07;1.45;;;;;;;2.75;96.61;98264.59;5026291;28;20241;-67
2022/01/08 05:53:40;;;;;;;4.97;1.35;;;;;;;2.78;97.32;98280.19;5026297;28;20032;-67
2022/01/08 05:56:06;;;;;;;6.55;1.80;;;;;;;2.70;96.69;98279.31;5026525;28;20025;-67
2022/01/08 05:58:32;;;;;;;7.00;1.90;;;;;;;2.67;97.02;98292.28;5026334;28;20026;-67
2022/01/08 06:00:57;;;;;;;4.13;1.40;;;;;;;2.75;97.23;98294.91;5026102;28;20057;-67
2022/01/08 06:03:22;;;;;;;5.63;1.45;;;;;;;2.76;97.29;98297.53;5026251;28;20209;-67
2022/01/08 06:05:48;;;;;;;4.30;1.98;;;;;;;2.82;96.36;98307.97;5026129;28;20021;-67
2022/01/08 06:08:13;;;;;;;7.10;2.38;;;;;;;2.79;97.00;98305.34;5026234;28;20370;-67
2022/01/08 06:10:39;;;;;;;3.38;1.80;;;;;;;2.82;96.25;98302.75;5026016;28;20056;-67
2022/01/08 06:13:04;;;;;;;14.80;2.13;;;;;;;2.75;95.94;98308.75;5026011;28;20033;-67
2022/01/08 06:15:30;;;;;;;6.40;1.83;;;;;;;2.69;95.98;98316.50;5025885;28;20033;-67
2022/01/08 06:17:56;;;;;;;7.20;2.28;;;;;;;2.68;96.31;98314.78;5025970;28;20048;-67
2022/01/08 06:20:21;;;;;;;5.88;2.35;;;;;;;2.59;96.24;98330.31;5025924;28;20333;-67
2022/01/08 06:22:47;;;;;;;4.35;2.15;;;;;;;2.58;96.58;98328.59;5026139;28;20044;-67
2022/01/08 06:25:12;;;;;;;7.50;2.10;;;;;;;2.51;96.58;98337.19;5025641;28;20038;-67
2022/01/08 06:27:37;;;;;;;12.68;2.90;;;;;;;2.45;96.15;98342.34;5025696;28;20076;-67
2022/01/08 06:30:04;;;;;;;6.57;2.08;;;;;;;2.38;96.34;98345.75;5025788;28;20022;-67
2022/01/08 06:32:29;;;;;;;5.88;1.90;;;;;;;2.29;95.83;98345.69;5025000;28;20309;-67
2022/01/08 06:34:55;;;;;;;6.55;2.35;;;;;;;2.20;95.78;98353.38;5025087;28;20056;-67
2022/01/08 06:37:20;;;;;;;7.43;2.95;;;;;;;2.14;96.20;98350.72;5025840;28;20076;-67
2022/01/08 06:39:48;;;;;;;4.85;2.03;;;;;;;2.04;96.32;98348.91;5025655;28;20022;-67
2022/01/08 06:42:14;;;;;;;4.57;2.22;;;;;;;1.99;96.12;98354.03;5025364;28;20080;-67
2022/01/08 06:44:39;;;;;;;4.90;2.47;;;;;;;1.93;96.62;98356.56;5025649;28;20021;-67
2022/01/08 06:47:05;;;;;;;8.82;2.47;;;;;;;1.91;96.69;98357.44;5025460;28;20014;-67
2022/01/08 06:49:31;;;;;;;5.43;2.08;;;;;;;1.83;96.92;98372.03;5025799;28;20021;-67
2022/01/08 06:51:56;;;;;;;6.80;2.17;;;;;;;1.80;96.35;98379.78;5025243;28;20021;-67
2022/01/08 06:54:22;;;;;;;6.38;2.10;;;;;;;1.72;96.64;98384.03;5025229;28;20014;-67
2022/01/08 06:56:47;;;;;;;6.32;2.25;;;;;;;1.78;96.75;98389.28;5025157;28;20093;-67
2022/01/08 06:59:13;;;;;;;7.53;2.22;;;;;;;1.84;96.90;98392.81;5025273;28;20022;-67
2022/01/08 07:01:39;;;;;;;7.90;2.75;;;;;;;1.99;96.97;98397.28;5025051;28;20013;-67
2022/01/08 07:04:05;;;;;;;7.32;3.10;;;;;;;2.01;96.11;98411.16;5025134;28;20262;-67
2022/01/08 07:06:30;;;;;;;6.25;2.28;;;;;;;2.03;96.00;98419.84;5024783;28;20018;-67
2022/01/08 07:08:56;;;;;;;10.20;2.80;;;;;;;2.08;96.09;98418.16;5025074;28;20017;-67
2022/01/08 07:11:21;;;;;;;4.75;2.60;;;;;;;2.10;95.64;98426.84;5024836;28;20014;-67
2022/01/08 07:13:47;;;;;;;6.57;3.58;;;;;;;2.10;95.81;98426.84;5024840;28;20018;-67
2022/01/08 07:16:12;;;;;;;7.60;2.25;;;;;;;2.21;95.54;98433.00;5024452;28;20022;-67
2022/01/08 07:18:38;;;;;;;8.88;2.72;;;;;;;2.22;95.15;98442.53;5024815;28;20049;-67
2022/01/08 07:21:03;;;;;;;8.23;3.28;;;;;;;2.23;95.41;98441.69;5024840;28;20231;-67
2022/01/08 07:23:28;;;;;;;10.73;3.42;;;;;;;2.25;95.34;98447.78;5024589;28;20026;-67
2022/01/08 07:25:54;;;;;;;6.72;3.00;;;;;;;2.26;95.64;98454.69;5024491;28;20042;-67
2022/01/08 07:28:19;;;;;;;6.90;2.58;;;;;;;2.27;95.45;98451.22;5024713;28;20029;-67
2022/01/08 07:30:45;;;;;;;12.45;3.20;;;;;;;2.31;95.25;98453.00;5024586;28;20020;-67
2022/01/08 07:33:11;;;;;;;10.35;2.92;;;;;;;2.29;95.57;98459.91;5024514;28;20028;-67
2022/01/08 07:35:36;;;;;;;10.38;2.78;;;;;;;2.28;95.77;98454.72;5025046;28;20014;-67
2022/01/08 07:38:11;;;;;;;5.78;2.92;;;;;;;2.41;95.93;98464.38;5024517;28;20056;-67
2022/01/08 07:40:39;;;;;;;6.78;2.67;;;;;;;2.37;95.72;98473.84;5024556;28;20032;-67
2022/01/08 07:43:05;;;;;;;12.18;2.75;;;;;;;2.38;95.61;98470.41;5024373;28;20017;-67
2022/01/08 07:45:33;;;;;;;11.15;3.25;;;;;;;2.40;95.39;98467.81;5023960;28;20095;-67
2022/01/08 07:47:58;;;;;;;8.15;3.50;;;;;;;2.42;95.34;98476.47;5024361;28;20038;-67
2022/01/08 07:50:24;;;;;;;11.07;3.40;;;;;;;2.37;95.51;98479.03;5024201;28;20030;-67
2022/01/08 07:52:50;;;;;;;7.90;3.13;;;;;;;2.34;95.62;98479.00;5024123;28;20017;-67
2022/01/08 07:55:16;;;;;;;7.13;2.70;;;;;;;2.44;95.73;98478.25;5024102;28;20025;-67
2022/01/08 07:57:41;;;;;;;10.43;3.38;;;;;;;2.49;95.34;98473.97;5023997;28;20028;-67
2022/01/08 08:00:08;;;;;;;7.15;3.05;;;;;;;2.52;95.37;98471.41;5024161;28;20028;-67
2022/01/08 08:02:33;;;;;;;5.65;3.20;;;;;;;2.48;95.06;98476.53;5023828;28;20026;-67
2022/01/08 08:04:59;;;;;;;9.57;3.45;;;;;;;2.48;95.58;98485.22;5023891;28;20053;-67
2022/01/08 08:07:37;;;;;;;9.50;2.60;;;;;;;2.49;95.67;98484.34;5023427;28;20072;-67
2022/01/08 08:26:51;;;;;;;11.25;2.58;;;;;;;2.68;96.81;98491.47;5022625;28;20040;-67
2022/01/08 08:29:17;;;;;;;5.13;2.75;;;;;;;2.67;95.96;98500.13;5022846;28;20217;-68
2022/01/08 08:31:43;;;;;;;4.55;2.50;;;;;;;2.67;95.98;98505.31;5022625;28;20064;-68
2022/01/08 08:34:09;;;;;;;13.23;3.03;;;;;;;2.76;95.41;98504.53;5022787;28;20089;-68
2022/01/08 08:36:35;;;;;;;7.55;2.30;;;;;;;2.72;95.56;98501.03;5021858;28;20230;-68
2022/01/08 08:39:00;;;;;;;11.48;2.42;;;;;;;2.73;95.08;98500.19;5022416;28;20045;-68
2022/01/08 08:41:25;;;;;;;3.60;1.80;;;;;;;2.81;95.73;98505.47;5022433;28;20026;-68
2022/01/08 08:43:51;;;;;;;15.20;2.70;;;;;;;2.78;95.50;98503.69;5022379;28;20022;-67
2022/01/08 08:46:16;;;;;;;10.02;3.42;;;;;;;2.77;95.79;98507.16;5022016;28;20042;-67
2022/01/08 08:48:43;;;;;;;6.85;2.22;;;;;;;2.75;96.10;98508.84;5023619;28;20088;-67
2022/01/08 08:51:08;;;;;;;4.88;2.10;;;;;;;2.80;95.99;98512.38;5023258;28;20081;-67
2022/01/08 08:53:34;;;;;;;10.45;2.20;;;;;;;2.81;96.21;98513.25;5023294;28;20198;-67
2022/01/08 08:55:59;;;;;;;6.50;2.17;;;;;;;2.81;96.25;98518.44;5023639;28;20048;-67
2022/01/08 08:58:24;;;;;;;11.57;3.28;;;;;;;2.77;96.58;98521.84;5027443;28;20393;-67
2022/01/08 09:00:50;;;;;;;16.48;3.42;;;;;;;2.82;97.00;98518.47;5024568;28;20036;-68
2022/01/08 09:03:17;;;;;;;4.95;2.35;;;;;;;3.02;97.35;98519.50;5024930;28;20026;-66
2022/01/08 09:05:42;;;;;;;4.93;2.58;;;;;;;3.03;96.00;98516.03;5026497;28;20017;-66
2022/01/08 09:08:08;;;;;;;12.60;2.85;;;;;;;3.09;95.65;98521.28;5028168;28;20335;-66
2022/01/08 09:10:33;;;;;;;10.27;2.65;;;;;;;3.03;96.07;98513.44;5028157;28;20025;-66
2022/01/08 09:12:59;;;;;;;11.00;3.10;;;;;;;2.98;95.89;98517.75;5028009;28;20025;-66
2022/01/08 09:15:26;;;;;;;10.32;2.80;;;;;;;2.99;95.54;98514.28;5028092;28;20029;-66
2022/01/08 09:17:56;;;;;;;7.65;3.00;;;;;;;2.99;94.58;98522.06;5027980;28;20026;-66
2022/01/08 09:20:22;;;;;;;5.45;2.65;;;;;;;3.04;95.37;98522.97;5028245;28;20022;-66
2022/01/08 09:22:48;;;;;;;4.18;2.88;;;;;;;2.97;95.40;98513.38;5027820;28;20110;-66
2022/01/08 09:25:13;;;;;;;3.95;2.20;;;;;;;2.97;94.96;98510.78;5027763;28;20034;-66
2022/01/08 09:27:38;;;;;;;7.88;2.63;;;;;;;2.86;95.54;98520.22;5027920;28;20026;-66
2022/01/08 09:30:06;;;;;;;6.47;2.88;;;;;;;2.97;95.64;98520.31;5027807;28;20037;-66
2022/01/08 09:32:32;;;;;;;9.55;3.20;;;;;;;3.03;95.25;98523.84;5027748;28;20010;-66
2022/01/08 09:34:58;;;;;;;12.77;3.20;;;;;;;3.06;95.21;98518.66;5027706;28;20032;-66
2022/01/08 09:37:23;;;;;;;17.88;3.15;;;;;;;3.04;95.51;98516.91;5027790;28;20022;-66
2022/01/08 09:39:49;;;;;;;5.22;2.63;;;;;;;3.04;95.44;98512.56;5027741;28;20021;-66
2022/01/08 09:42:14;;;;;;;9.63;3.22;;;;;;;2.96;95.99;98503.84;5027901;28;20090;-66
2022/01/08 09:44:43;;;;;;;16.35;3.20;;;;;;;3.02;96.27;98501.31;5027542;28;20025;-66
2022/01/08 09:47:09;;;;;;;7.80;3.13;;;;;;;3.50;96.23;98509.44;5026146;28;20026;-66
2022/01/08 09:49:34;;;;;;;8.05;3.63;;;;;;;3.75;95.44;98508.75;5027349;28;20093;-66
2022/01/08 09:52:03;;;;;;;6.80;3.10;;;;;;;3.75;94.76;98516.53;5027675;28;20017;-66
2022/01/08 09:54:28;;;;;;;11.18;3.17;;;;;;;3.79;94.58;98507.88;5027523;28;20022;-66
2022/01/08 09:56:54;;;;;;;17.05;4.15;;;;;;;3.89;94.31;98508.81;5027471;28;20028;-66
2022/01/08 09:59:21;;;;;;;11.65;3.30;;;;;;;3.81;94.40;98511.38;5027510;28;20026;-66
2022/01/08 10:01:54;;;;;;;16.65;3.20;;;;;;;3.78;94.42;98506.16;5027256;28;20033;-66
2022/01/08 10:04:25;;;;;;;9.10;3.90;;;;;;;3.66;93.77;98500.88;5027227;28;20033;-66
2022/01/08 10:06:51;;;;;;;4.63;2.72;;;;;;;3.74;94.54;98499.16;5027307;28;20058;-66
2022/01/08 10:09:16;;;;;;;5.28;2.90;;;;;;;3.74;94.32;98499.16;5027064;28;20029;-66
2022/01/08 10:11:49;;;;;;;7.40;2.78;;;;;;;3.86;93.50;98499.22;5027251;28;20030;-66
2022/01/08 10:14:27;;;;;;;6.97;3.25;;;;;;;4.01;93.43;98488.91;5027315;28;20085;-66
2022/01/08 10:19:37;;;;;;;7.25;2.70;;;;;;;4.29;93.14;98490.75;5027298;28;20030;-66
2022/01/08 10:22:14;;;;;;;6.05;3.00;;;;;;;4.43;92.59;98481.22;5027444;28;20030;-66
2022/01/08 10:24:39;;;;;;;9.25;3.33;;;;;;;4.41;92.48;98474.25;5027387;28;20321;-66
2022/01/08 10:27:07;;;;;;;3.10;1.95;;;;;;;4.56;92.50;98483.84;5027245;28;20057;-66
2022/01/08 10:29:34;;;;;;;11.10;2.40;;;;;;;4.41;91.50;98477.75;5027512;28;20028;-66
2022/01/08 10:31:59;;;;;;;7.55;3.17;;;;;;;4.53;90.71;98467.31;5027394;28;20044;-66
2022/01/08 10:34:27;;;;;;;6.85;2.75;;;;;;;4.59;91.92;98463.88;5027319;28;20026;-66
2022/01/08 10:36:53;;;;;;;7.35;2.88;;;;;;;4.46;91.61;98473.41;5027477;28;20021;-66
2022/01/08 10:39:32;;;;;;;4.05;2.47;;;;;;;4.36;91.66;98470.75;5027151;28;20333;-66
2022/01/08 10:42:01;;;;;;;6.13;2.38;;;;;;;4.21;91.61;98482.00;5026929;28;20030;-66
2022/01/08 10:44:32;;;;;;;8.35;2.30;;;;;;;4.11;92.07;98479.38;5027084;28;20034;-66
2022/01/08 10:47:05;;;;;;;5.97;2.22;;;;;;;4.08;92.09;98474.16;5027056;28;20032;-66
2022/01/08 10:49:43;;;;;;;10.60;2.85;;;;;;;3.92;92.83;98464.53;5027092;28;20052;-66
2022/01/08 10:52:14;;;;;;;3.85;2.35;;;;;;;3.78;93.71;98459.28;5026586;28;20029;-66
2022/01/08 10:54:45;;;;;;;10.20;3.10;;;;;;;3.86;93.13;98452.38;5026700;28;20032;-66
2022/01/08 10:57:15;;;;;;;5.70;2.03;;;;;;;3.87;93.07;98453.25;5026501;28;20026;-66
2022/01/08 10:59:42;;;;;;;5.05;2.03;;;;;;;3.90;93.46;98443.69;5026488;28;20048;-66
2022/01/08 11:02:11;;;;;;;7.15;2.55;;;;;;;3.99;93.30;98437.69;5026398;28;20344;-66
2022/01/08 11:04:40;;;;;;;8.05;2.63;;;;;;;4.03;93.25;98445.50;5026844;28;20253;-66
2022/01/08 11:07:21;;;;;;;8.98;2.83;;;;;;;4.01;93.23;98431.59;5026684;28;20032;-66
2022/01/08 11:09:49;;;;;;;6.63;2.97;;;;;;;4.04;93.47;98426.41;5026657;28;20022;-66
2022/01/08 11:12:23;;;;;;;8.55;3.05;;;;;;;4.13;93.91;98415.16;5026335;28;20021;-66
2022/01/08 11:17:24;;;;;;;8.07;2.55;;;;;;;4.21;91.74;98388.25;5026453;28;20029;-66
2022/01/08 11:19:55;;;;;;;10.65;2.50;;;;;;;4.31;91.71;98395.19;5025918;28;20186;-66
2022/01/08 11:22:24;;;;;;;7.97;1.90;;;;;;;4.21;92.15;98388.25;5026100;28;20029;-66
2022/01/08 11:24:54;;;;;;;4.55;2.17;;;;;;;4.28;91.92;98382.16;5025876;28;20324;-66
2022/01/08 11:27:23;;;;;;;8.45;1.33;;;;;;;4.26;91.23;98376.09;5026302;28;20306;-66
2022/01/08 11:30:11;;;;;;;2.20;1.08;;;;;;;4.32;90.39;98360.50;5025970;28;20097;-66
2022/01/08 11:32:38;;;;;;;7.03;1.63;;;;;;;4.34;90.25;98361.34;5026024;28;20014;-66
2022/01/08 11:35:07;;;;;;;7.28;1.17;;;;;;;4.31;91.60;98353.50;5025927;28;20026;-66
2022/01/08 11:37:33;;;;;;;6.25;1.08;;;;;;;4.36;90.57;98357.00;5025674;28;20022;-66
2022/01/08 11:40:03;;;;;;;2.20;1.40;;;;;;;4.28;90.51;98350.06;5025975;28;20017;-66
2022/01/08 11:42:31;;;;;;;6.20;1.45;;;;;;;4.30;90.18;98346.59;5025625;28;20026;-66
2022/01/08 11:44:59;;;;;;;1.77;0.80;;;;;;;4.30;90.44;98328.34;5025692;28;20030;-66
2022/01/08 11:47:29;;;;;;;1.63;0.82;;;;;;;4.24;91.01;98319.69;5025768;28;20029;-66
2022/01/08 11:49:56;;;;;;;3.75;1.48;;;;;;;4.34;90.91;98322.25;5025451;28;20029;-66
2022/01/08 11:52:23;;;;;;;7.82;1.55;;;;;;;4.40;91.23;98318.81;5025658;28;20029;-66
2022/01/08 11:54:50;;;;;;;7.47;1.45;;;;;;;4.49;90.70;98306.63;5024949;28;20214;-67
2022/01/08 11:57:22;;;;;;;3.50;0.93;;;;;;;4.72;91.15;98313.56;5023290;28;20113;-68
2022/01/08 11:59:49;;;;;;;3.22;1.33;;;;;;;4.69;88.82;98293.59;5024852;28;20418;-68
2022/01/08 12:02:15;;;;;;;3.05;1.40;;;;;;;4.64;88.75;98290.09;5031038;28;20257;-68
2022/01/08 12:04:45;;;;;;;5.00;1.25;;;;;;;4.65;88.40;98286.63;5023727;28;20021;-68
2022/01/08 12:07:33;;;;;;;4.78;1.25;;;;;;;4.51;89.25;98280.56;5021613;28;20195;-68
2022/01/08 12:10:31;;;;;;;2.13;1.00;;;;;;;4.47;89.88;98265.81;5023572;28;20317;-68
2022/01/08 12:13:00;;;;;;;3.67;1.05;;;;;;;4.60;88.37;98269.25;5021110;28;20021;-68
2022/01/08 12:15:40;;;;;;;10.60;1.90;;;;;;;4.57;89.22;98266.66;5021242;28;20053;-68
2022/01/08 12:18:08;;;;;;;2.55;0.93;;;;;;;4.62;87.86;98270.13;5023085;28;20083;-68
2022/01/08 12:20:48;;;;;;;8.27;0.90;;;;;;;4.64;86.21;98247.53;5022437;28;20040;-68
2022/01/08 12:23:32;;;;;;;2.53;0.70;;;;;;;4.65;87.49;98242.31;5021739;28;20375;-68